Time;durP1;ratioP1;P1;durP2;ratioP2;P2;SDS_P1;SDS_P2;PMS_P1;PMS_P2;Temp;Humidity;BMP_temperature;BMP_pressure;BME280_temperature;BME280_humidity;BME280_pressure;Samples;Min_cycle;Max_cycle;Signal;HPM_P1;HPM_P2
2022/05/19 00:00:09;;;;;;;324.73;113.30;;;;;;;11.19;86.29;100787.66;333701;29;1465;-80
2022/05/19 00:00:19;;;;;;;325.55;113.15;;;;;;;11.16;86.32;100787.72;338819;29;1314;-80
2022/05/19 00:00:30;;;;;;;326.23;113.40;;;;;;;11.21;86.36;100791.09;339029;29;1202;-80
2022/05/19 00:01:09;;;;;;;320.60;109.57;;;;;;;11.21;86.18;100796.31;339079;29;755;-80
2022/05/19 00:01:20;;;;;;;321.58;108.80;;;;;;;11.19;85.96;100792.88;339987;29;1344;-81
2022/05/19 00:01:30;;;;;;;321.47;110.20;;;;;;;11.19;85.67;100788.50;334814;29;1254;-81
2022/05/19 00:01:40;;;;;;;324.20;110.95;;;;;;;11.17;85.92;100795.53;338387;29;1254;-81
2022/05/19 00:01:51;;;;;;;327.67;114.13;;;;;;;11.17;86.07;100794.69;337933;29;1255;-81
2022/05/19 00:02:03;;;;;;;329.67;114.80;;;;;;;11.14;86.21;100794.75;337721;29;1511;-81
2022/05/19 00:02:13;;;;;;;332.77;115.80;;;;;;;11.17;86.20;100792.91;337154;29;3018;-81
2022/05/19 00:02:24;;;;;;;334.45;116.20;;;;;;;11.10;86.07;100787.88;336921;29;1662;-82
2022/05/19 00:02:34;;;;;;;337.30;116.07;;;;;;;11.14;86.12;100792.13;337534;29;1229;-81
2022/05/19 00:02:45;;;;;;;337.70;115.40;;;;;;;11.17;86.00;100789.44;342607;28;1680;-81
2022/05/19 00:02:55;;;;;;;334.98;115.22;;;;;;;11.14;86.22;100785.13;340335;29;1256;-81
2022/05/19 00:03:05;;;;;;;333.20;115.83;;;;;;;11.17;85.97;100789.44;335247;29;1353;-81
2022/05/19 00:03:16;;;;;;;330.73;115.90;;;;;;;11.19;86.37;100792.88;337447;29;1519;-80
2022/05/19 00:03:33;;;;;;;331.83;114.68;;;;;;;11.17;86.43;100789.44;340622;29;1316;-80
2022/05/19 00:03:44;;;;;;;334.10;114.00;;;;;;;11.21;86.58;100796.31;337435;29;1454;-80
2022/05/19 00:03:54;;;;;;;332.27;113.45;;;;;;;11.15;86.49;100781.63;333574;29;1347;-81
2022/05/19 00:04:05;;;;;;;331.17;113.67;;;;;;;11.18;86.65;100783.31;337488;29;783;-81
2022/05/19 00:04:15;;;;;;;329.73;113.55;;;;;;;11.16;86.68;100785.97;340624;29;1232;-81
2022/05/19 00:04:26;;;;;;;330.60;113.17;;;;;;;11.12;86.54;100786.94;337839;29;1311;-81
2022/05/19 00:04:37;;;;;;;328.98;111.68;;;;;;;11.11;86.56;100786.97;337777;29;1249;-81
2022/05/19 00:04:47;;;;;;;327.13;110.47;;;;;;;11.08;86.94;100789.66;339134;29;1591;-81
2022/05/19 00:04:58;;;;;;;327.77;112.47;;;;;;;11.06;87.19;100786.22;341532;29;1397;-81
2022/05/19 00:05:08;;;;;;;330.37;113.97;;;;;;;11.07;86.64;100793.19;340280;29;1263;-81
2022/05/19 00:05:19;;;;;;;328.33;113.57;;;;;;;11.06;86.46;100786.22;338990;29;925;-81
2022/05/19 00:05:29;;;;;;;332.43;114.23;;;;;;;11.07;86.68;100787.94;337676;29;1167;-81
2022/05/19 00:05:39;;;;;;;328.85;111.53;;;;;;;11.08;86.49;100787.91;335495;29;1240;-81
2022/05/19 00:05:50;;;;;;;331.80;113.57;;;;;;;11.12;86.45;100786.06;335481;29;1005;-81
2022/05/19 00:06:01;;;;;;;328.83;109.93;;;;;;;11.11;86.53;100789.59;336870;29;1292;-81
2022/05/19 00:06:11;;;;;;;331.57;111.83;;;;;;;11.05;86.22;100779.25;340432;29;1242;-81
2022/05/19 00:06:21;;;;;;;331.23;111.35;;;;;;;11.11;86.86;100786.97;336264;29;1173;-80
2022/05/19 00:06:32;;;;;;;331.37;114.10;;;;;;;11.11;86.51;100790.44;337368;29;1602;-80
2022/05/19 00:06:42;;;;;;;331.25;114.28;;;;;;;11.11;86.62;100784.34;337415;29;1307;-80
2022/05/19 00:06:53;;;;;;;334.73;115.50;;;;;;;11.10;86.34;100777.38;336875;29;898;-80
2022/05/19 00:07:03;;;;;;;339.15;116.63;;;;;;;11.12;86.53;100780.81;337881;29;1494;-80
2022/05/19 00:07:14;;;;;;;338.97;116.40;;;;;;;11.19;86.55;100798.97;337654;29;1214;-80
2022/05/19 00:07:24;;;;;;;337.20;115.90;;;;;;;11.16;86.60;100788.59;339264;29;1275;-80
2022/05/19 00:07:35;;;;;;;334.38;114.50;;;;;;;11.20;86.20;100789.38;340350;29;1328;-80
2022/05/19 00:07:45;;;;;;;335.97;115.17;;;;;;;11.15;86.26;100791.25;336076;29;1806;-80
2022/05/19 00:07:56;;;;;;;334.15;115.07;;;;;;;11.15;86.22;100789.47;339872;29;1782;-80
2022/05/19 00:08:06;;;;;;;334.10;114.50;;;;;;;11.16;86.37;100791.19;340716;29;1545;-80
2022/05/19 00:08:17;;;;;;;332.30;111.72;;;;;;;11.14;86.17;100784.28;340793;29;985;-80
2022/05/19 00:08:27;;;;;;;334.40;112.03;;;;;;;11.19;86.36;100792.88;339348;29;1317;-80
2022/05/19 00:08:38;;;;;;;333.85;112.93;;;;;;;11.16;86.45;100780.72;336910;29;783;-80
2022/05/19 00:08:48;;;;;;;335.40;115.63;;;;;;;11.21;86.59;100796.31;340537;29;1324;-80
2022/05/19 00:08:58;;;;;;;333.67;114.60;;;;;;;11.20;86.21;100794.59;337512;29;815;-80
2022/05/19 00:09:09;;;;;;;334.47;115.47;;;;;;;11.19;86.25;100790.25;336158;29;1271;-80
2022/05/19 00:09:19;;;;;;;332.83;114.77;;;;;;;11.19;86.21;100790.25;338964;29;835;-81
2022/05/19 00:09:30;;;;;;;332.23;114.32;;;;;;;11.18;85.77;100786.78;339194;29;1416;-81
2022/05/19 00:09:40;;;;;;;330.63;112.75;;;;;;;11.21;86.32;100788.47;337213;29;1565;-81
2022/05/19 00:09:52;;;;;;;334.03;112.40;;;;;;;11.20;86.34;100786.75;340434;29;1234;-81
2022/05/19 00:10:02;;;;;;;332.85;112.70;;;;;;;11.22;86.10;100792.81;336605;29;1360;-81
2022/05/19 00:10:13;;;;;;;334.40;113.83;;;;;;;11.18;85.94;100775.44;339083;29;1278;-81
2022/05/19 00:10:23;;;;;;;333.10;113.53;;;;;;;11.21;86.04;100791.09;339108;29;1209;-81
2022/05/19 00:10:34;;;;;;;334.50;114.47;;;;;;;11.23;86.22;100799.78;336540;29;879;-81
2022/05/19 00:10:44;;;;;;;332.25;114.78;;;;;;;11.19;86.17;100787.66;337768;29;1305;-81
2022/05/19 00:10:55;;;;;;;330.90;116.03;;;;;;;11.18;86.08;100796.41;340849;29;1260;-81
2022/05/19 00:11:16;;;;;;;324.58;112.75;;;;;;;11.19;86.33;100790.25;336672;29;1309;-81
2022/05/19 00:11:28;;;;;;;320.13;110.13;;;;;;;11.18;85.85;100802.50;339027;29;3011;-81
2022/05/19 00:11:39;;;;;;;322.27;111.03;;;;;;;11.13;86.19;100793.91;339967;29;1666;-81
2022/05/19 00:11:49;;;;;;;327.53;113.40;;;;;;;11.16;86.06;100790.34;334305;29;1776;-81
2022/05/19 00:12:01;;;;;;;331.25;115.55;;;;;;;11.15;86.29;100791.25;338789;29;1272;-81
2022/05/19 00:12:15;;;;;;;330.52;114.90;;;;;;;11.16;86.34;100790.34;339591;29;1008;-81
2022/05/19 00:12:25;;;;;;;322.85;110.03;;;;;;;11.17;86.32;100794.69;339529;29;961;-81
2022/05/19 00:12:36;;;;;;;322.85;110.05;;;;;;;11.20;86.43;100797.22;336408;29;1121;-81
2022/05/19 00:12:46;;;;;;;323.60;110.77;;;;;;;11.19;86.43;100798.13;336509;29;1297;-81
2022/05/19 00:12:56;;;;;;;327.35;113.43;;;;;;;11.19;86.35;100792.88;337730;29;1509;-81
2022/05/19 00:13:07;;;;;;;326.37;111.00;;;;;;;11.16;86.36;100788.59;337732;29;1366;-80
2022/05/19 00:13:17;;;;;;;327.58;111.90;;;;;;;11.19;86.42;100792.88;337751;29;1411;-81
2022/05/19 00:13:28;;;;;;;330.00;112.23;;;;;;;11.18;86.56;100794.66;336456;29;1178;-80
2022/05/19 00:13:39;;;;;;;332.10;114.35;;;;;;;11.18;86.41;100793.78;335411;29;1218;-80
2022/05/19 00:13:49;;;;;;;328.90;112.60;;;;;;;11.19;86.39;100796.38;336965;29;1238;-80
2022/05/19 00:14:00;;;;;;;327.43;114.53;;;;;;;11.19;86.33;100787.66;338044;29;1359;-80
2022/05/19 00:14:10;;;;;;;329.25;115.57;;;;;;;11.14;86.40;100787.75;338898;29;772;-80
2022/05/19 00:14:21;;;;;;;335.87;118.97;;;;;;;11.17;86.36;100787.69;337358;29;1318;-80
2022/05/19 00:14:31;;;;;;;336.95;117.70;;;;;;;11.15;86.77;100796.47;337325;29;1399;-80
2022/05/19 00:14:42;;;;;;;338.80;118.33;;;;;;;11.15;86.45;100786.00;336240;29;861;-80
2022/05/19 00:14:52;;;;;;;335.92;115.80;;;;;;;11.13;86.19;100785.16;338668;29;1386;-80
2022/05/19 00:15:04;;;;;;;334.90;116.57;;;;;;;11.16;86.37;100803.44;340267;29;1204;-80
2022/05/19 00:15:14;;;;;;;327.52;114.43;;;;;;;11.14;86.44;100794.75;338047;29;1371;-80
2022/05/19 00:15:25;;;;;;;327.70;113.73;;;;;;;11.07;86.58;100787.94;335388;29;1207;-80
2022/05/19 00:15:35;;;;;;;328.63;112.88;;;;;;;11.12;86.58;100799.16;335463;29;1237;-80
2022/05/19 00:15:46;;;;;;;332.88;114.18;;;;;;;11.07;86.60;100790.56;337937;29;1348;-80
2022/05/19 00:15:56;;;;;;;334.47;117.07;;;;;;;11.11;86.71;100797.44;337958;29;1294;-80
2022/05/19 00:16:07;;;;;;;332.67;117.10;;;;;;;11.09;86.68;100797.47;339391;29;1222;-80
2022/05/19 00:16:17;;;;;;;332.03;117.73;;;;;;;11.08;86.19;100797.53;339394;29;1295;-80
2022/05/19 00:16:28;;;;;;;328.92;114.47;;;;;;;11.13;86.49;100793.03;335286;29;1367;-80
2022/05/19 00:16:38;;;;;;;332.07;115.87;;;;;;;11.12;86.48;100797.41;338210;29;1226;-80
2022/05/19 00:16:49;;;;;;;332.55;114.40;;;;;;;11.05;86.60;100789.72;338785;29;1964;-80
2022/05/19 00:16:59;;;;;;;332.73;114.95;;;;;;;11.01;86.64;100799.41;340017;29;1035;-80
2022/05/19 00:17:10;;;;;;;331.27;113.67;;;;;;;10.97;87.13;100792.53;337409;29;1206;-80
2022/05/19 00:17:20;;;;;;;329.92;113.10;;;;;;;10.99;86.81;100794.22;336193;29;1254;-80
2022/05/19 00:17:30;;;;;;;333.73;114.93;;;;;;;10.94;87.20;100788.22;337306;29;728;-80
2022/05/19 00:17:41;;;;;;;336.27;116.10;;;;;;;11.00;87.03;100798.56;336063;29;1593;-80
2022/05/19 00:17:51;;;;;;;334.10;115.32;;;;;;;11.02;86.62;100797.66;340496;29;1233;-80
2022/05/19 00:18:02;;;;;;;330.50;115.23;;;;;;;11.03;87.03;100800.25;340368;29;1226;-80
2022/05/19 00:18:12;;;;;;;330.50;114.28;;;;;;;11.03;87.28;100802.00;336380;29;1455;-80
2022/05/19 00:18:23;;;;;;;333.23;115.37;;;;;;;11.05;86.94;100797.59;336720;29;1159;-80
2022/05/19 00:18:34;;;;;;;334.20;114.60;;;;;;;11.05;87.48;100800.22;339216;29;1242;-80
2022/05/19 00:18:44;;;;;;;330.20;114.03;;;;;;;11.06;87.74;100794.94;338245;29;958;-80
2022/05/19 00:18:55;;;;;;;328.10;113.38;;;;;;;11.06;87.89;100796.69;338430;29;1186;-80
2022/05/19 00:19:06;;;;;;;327.20;113.60;;;;;;;11.06;87.49;100797.56;339195;29;1301;-80
2022/05/19 00:19:18;;;;;;;329.00;114.60;;;;;;;11.07;87.69;100803.66;336847;29;1371;-80
2022/05/19 00:19:28;;;;;;;328.67;114.25;;;;;;;11.06;87.76;100797.56;339990;29;1427;-80
2022/05/19 00:19:39;;;;;;;331.05;114.75;;;;;;;11.10;87.57;100795.72;338899;29;1366;-80
2022/05/19 00:19:49;;;;;;;332.17;115.57;;;;;;;11.11;87.59;100795.69;337551;29;974;-81
2022/05/19 00:20:00;;;;;;;334.80;115.40;;;;;;;11.12;87.79;100799.16;337385;29;1305;-81
2022/05/19 00:20:10;;;;;;;335.80;116.13;;;;;;;11.08;87.37;100800.13;339378;29;1242;-81
2022/05/19 00:20:20;;;;;;;336.70;116.43;;;;;;;11.04;87.56;100815.06;337731;29;1377;-80
2022/05/19 00:20:31;;;;;;;336.70;116.97;;;;;;;11.00;87.63;100802.94;339040;29;2934;-80
2022/05/19 00:20:41;;;;;;;332.98;115.40;;;;;;;11.00;87.58;100798.56;336300;29;2901;-80
2022/05/19 00:20:52;;;;;;;333.40;117.43;;;;;;;11.00;87.77;100801.19;335165;29;3291;-80
2022/05/19 00:21:02;;;;;;;333.73;118.83;;;;;;;10.97;87.90;100803.00;339278;29;1871;-80
2022/05/19 00:21:13;;;;;;;333.50;119.23;;;;;;;10.98;87.63;100799.50;339323;29;1249;-80
2022/05/19 00:21:24;;;;;;;331.08;117.28;;;;;;;10.99;87.78;100794.22;339298;29;1327;-80
2022/05/19 00:21:35;;;;;;;327.44;114.72;;;;;;;11.00;87.86;100798.56;336848;29;1445;-80
2022/05/19 00:21:45;;;;;;;328.97;114.63;;;;;;;10.94;87.90;100793.47;336618;29;1313;-80
2022/05/19 00:21:56;;;;;;;333.50;115.27;;;;;;;10.95;87.85;100800.41;337602;29;1329;-80
2022/05/19 00:22:06;;;;;;;337.30;117.53;;;;;;;10.98;87.79;100800.34;333834;29;878;-80
2022/05/19 00:22:17;;;;;;;336.98;116.25;;;;;;;10.97;87.64;100787.28;336247;29;883;-80
2022/05/19 00:22:27;;;;;;;339.00;117.83;;;;;;;11.00;87.79;100805.56;336999;29;1623;-80
2022/05/19 00:22:38;;;;;;;335.95;114.85;;;;;;;11.03;87.75;100802.00;336101;29;1380;-80
2022/05/19 00:22:48;;;;;;;335.57;114.30;;;;;;;11.04;87.92;100801.09;338075;29;1187;-80
2022/05/19 00:22:58;;;;;;;333.90;113.37;;;;;;;10.98;87.95;100792.50;341658;29;1215;-81
2022/05/19 00:23:09;;;;;;;332.00;113.13;;;;;;;11.06;87.97;100801.94;339313;29;933;-81
2022/05/19 00:23:19;;;;;;;335.40;115.87;;;;;;;11.03;87.72;100791.53;340514;29;1322;-81
2022/05/19 00:23:30;;;;;;;332.40;114.72;;;;;;;11.05;87.80;100797.59;337745;29;1323;-81
2022/05/19 00:23:40;;;;;;;331.70;116.00;;;;;;;11.03;87.81;100800.25;336452;29;1258;-81
2022/05/19 00:23:50;;;;;;;326.10;112.65;;;;;;;11.00;87.85;100792.47;342306;28;1573;-81
2022/05/19 00:24:01;;;;;;;327.13;111.77;;;;;;;11.00;87.94;100797.69;341196;29;1155;-81
2022/05/19 00:24:11;;;;;;;326.98;110.75;;;;;;;10.98;87.82;100800.34;338142;29;1299;-81
2022/05/19 00:24:22;;;;;;;327.30;111.63;;;;;;;10.99;87.77;100796.84;340486;29;1213;-81
2022/05/19 00:24:32;;;;;;;326.67;113.28;;;;;;;10.99;87.67;100801.22;340259;29;1418;-81
2022/05/19 00:24:42;;;;;;;327.03;112.87;;;;;;;10.96;87.89;100796.03;337053;29;1703;-81
2022/05/19 00:24:53;;;;;;;327.67;114.27;;;;;;;10.95;87.90;100799.56;339662;29;1292;-81
2022/05/19 00:25:04;;;;;;;327.23;113.68;;;;;;;10.95;88.19;100800.41;340022;29;1217;-81
2022/05/19 00:25:14;;;;;;;327.80;113.57;;;;;;;10.94;88.25;100798.69;337457;29;886;-81
2022/05/19 00:25:24;;;;;;;330.60;113.50;;;;;;;10.99;87.94;100802.06;339500;29;1361;-81
2022/05/19 00:25:35;;;;;;;334.00;114.30;;;;;;;10.97;87.75;100796.00;338838;29;1315;-81
2022/05/19 00:25:45;;;;;;;334.93;115.80;;;;;;;10.95;87.69;100795.19;339082;29;1206;-81
2022/05/19 00:25:56;;;;;;;333.42;115.53;;;;;;;11.03;87.74;100802.00;341703;29;1343;-81
2022/05/19 00:26:06;;;;;;;335.03;116.53;;;;;;;10.98;87.88;100795.13;337664;29;1307;-81
2022/05/19 00:26:17;;;;;;;334.23;114.82;;;;;;;10.98;88.10;100794.25;336593;29;1229;-81
2022/05/19 00:26:27;;;;;;;338.37;116.50;;;;;;;10.93;88.24;100802.22;340654;29;1304;-81
2022/05/19 00:26:37;;;;;;;336.20;114.37;;;;;;;10.89;87.84;100790.09;343573;28;1269;-81
2022/05/19 00:26:48;;;;;;;335.03;115.17;;;;;;;10.92;88.12;100790.00;340519;29;1230;-81
2022/05/19 00:26:58;;;;;;;332.77;113.73;;;;;;;10.88;88.48;100787.50;339146;29;1157;-80
2022/05/19 00:27:09;;;;;;;334.98;114.13;;;;;;;10.90;87.98;100794.44;338076;29;1248;-80
2022/05/19 00:27:20;;;;;;;339.23;116.65;;;;;;;10.94;87.98;100798.69;335962;29;1478;-80
2022/05/19 00:27:31;;;;;;;339.33;118.40;;;;;;;10.92;87.92;100797.88;336349;29;1340;-80
2022/05/19 00:27:41;;;;;;;338.43;118.97;;;;;;;10.95;87.78;100789.94;337395;29;1325;-80
2022/05/19 00:27:52;;;;;;;334.77;115.30;;;;;;;10.94;87.73;100798.69;337541;29;870;-80
2022/05/19 00:28:02;;;;;;;338.70;113.47;;;;;;;10.93;87.97;100791.75;339673;29;1319;-80
2022/05/19 00:28:13;;;;;;;339.08;113.30;;;;;;;10.92;87.58;100795.25;339928;29;1012;-80
2022/05/19 00:28:23;;;;;;;337.38;113.50;;;;;;;10.96;87.76;100796.91;336198;29;1246;-80
2022/05/19 00:28:33;;;;;;;334.20;115.00;;;;;;;10.93;87.71;100794.34;339126;29;668;-80
2022/05/19 00:28:44;;;;;;;337.13;116.33;;;;;;;10.90;87.88;100786.56;339551;29;1266;-80
2022/05/19 00:28:54;;;;;;;338.15;116.95;;;;;;;10.94;87.77;100796.06;339119;29;1313;-80
2022/05/19 00:29:05;;;;;;;335.80;116.30;;;;;;;10.96;87.48;100796.91;339333;29;1017;-80
2022/05/19 00:29:15;;;;;;;334.88;115.30;;;;;;;10.98;87.96;100802.09;341033;29;1246;-80
2022/05/19 00:29:26;;;;;;;332.88;114.63;;;;;;;10.98;87.65;100789.88;337738;29;1242;-80
2022/05/19 00:29:36;;;;;;;332.37;114.27;;;;;;;10.94;87.94;100796.06;337999;29;1282;-80
2022/05/19 00:29:47;;;;;;;334.47;113.73;;;;;;;10.98;87.94;100799.50;337810;29;2730;-80
2022/05/19 00:29:57;;;;;;;335.25;114.18;;;;;;;10.99;87.83;100793.34;340934;29;2942;-80
2022/05/19 00:30:08;;;;;;;337.47;116.07;;;;;;;10.95;88.08;100795.19;340159;29;1194;-80
2022/05/19 00:30:18;;;;;;;336.20;118.15;;;;;;;10.99;87.81;100802.06;336667;29;1817;-80
2022/05/19 00:30:29;;;;;;;335.75;117.22;;;;;;;11.02;87.74;100801.13;337508;29;854;-80
2022/05/19 00:30:40;;;;;;;337.37;117.07;;;;;;;11.00;88.00;100792.47;338813;29;1118;-80
2022/05/19 00:30:50;;;;;;;334.75;114.43;;;;;;;11.03;87.60;100802.00;340255;29;1462;-80
2022/05/19 00:31:01;;;;;;;329.70;112.90;;;;;;;11.04;87.58;100803.72;337538;29;1504;-80
2022/05/19 00:31:12;;;;;;;326.25;111.97;;;;;;;11.01;88.13;100794.19;337658;29;1230;-80
2022/05/19 00:31:23;;;;;;;328.15;113.28;;;;;;;11.03;87.65;100791.53;337765;29;1258;-80
2022/05/19 00:31:33;;;;;;;329.02;113.50;;;;;;;11.03;87.49;100804.63;339313;29;1229;-80
2022/05/19 00:31:44;;;;;;;331.87;113.53;;;;;;;10.99;87.54;100791.59;340563;29;1637;-80
2022/05/19 00:31:55;;;;;;;332.90;112.90;;;;;;;10.99;87.38;100795.97;342094;29;1350;-80
2022/05/19 00:32:06;;;;;;;333.75;112.85;;;;;;;11.00;87.75;100795.94;337797;29;1534;-80
2022/05/19 00:32:16;;;;;;;330.10;112.78;;;;;;;10.99;87.53;100790.72;338111;29;953;-80
2022/05/19 00:32:26;;;;;;;328.43;114.10;;;;;;;10.99;87.44;100793.34;337693;29;827;-80
2022/05/19 00:32:37;;;;;;;326.38;112.75;;;;;;;11.00;87.57;100793.31;340139;29;1323;-80
2022/05/19 00:32:48;;;;;;;328.73;113.33;;;;;;;11.00;87.53;100793.31;336334;29;1196;-80
2022/05/19 00:32:58;;;;;;;328.33;112.13;;;;;;;11.05;87.58;100805.44;339026;29;862;-80
2022/05/19 00:33:10;;;;;;;329.65;113.78;;;;;;;11.03;87.71;100799.38;336673;29;942;-80
2022/05/19 00:33:20;;;;;;;328.77;113.28;;;;;;;11.04;87.92;100801.09;336266;29;1256;-80
2022/05/19 00:33:30;;;;;;;330.13;113.57;;;;;;;11.04;87.52;100795.88;341546;29;1226;-80
2022/05/19 00:33:41;;;;;;;330.75;113.00;;;;;;;11.02;87.67;100800.28;339021;29;1380;-80
2022/05/19 00:33:51;;;;;;;333.57;113.43;;;;;;;11.02;87.44;100790.66;337806;29;1318;-80
2022/05/19 00:34:02;;;;;;;333.05;112.68;;;;;;;10.95;87.30;100789.94;338969;29;1320;-80
2022/05/19 00:34:12;;;;;;;332.67;113.43;;;;;;;11.02;87.54;100805.50;339234;29;1547;-80
2022/05/19 00:34:23;;;;;;;331.50;114.22;;;;;;;10.94;87.67;100790.84;336703;29;1419;-80
2022/05/19 00:34:33;;;;;;;334.67;115.13;;;;;;;10.99;87.40;100802.06;338056;29;1164;-80
2022/05/19 00:34:44;;;;;;;335.15;115.57;;;;;;;10.95;87.56;100795.19;339067;29;1353;-80
2022/05/19 00:34:54;;;;;;;334.13;114.23;;;;;;;10.98;87.52;100795.13;335314;29;1273;-80
2022/05/19 00:35:04;;;;;;;331.98;113.20;;;;;;;10.93;87.63;100791.75;340333;29;1328;-80
2022/05/19 00:35:15;;;;;;;333.80;113.50;;;;;;;10.96;87.64;100796.03;340134;29;1011;-80
2022/05/19 00:35:26;;;;;;;334.00;115.38;;;;;;;10.94;87.33;100793.47;336239;29;1435;-80
2022/05/19 00:35:37;;;;;;;332.45;114.70;;;;;;;10.93;87.20;100786.50;338955;29;1258;-80
2022/05/19 00:35:47;;;;;;;329.35;111.50;;;;;;;10.93;87.48;100786.50;340051;29;1442;-80
2022/05/19 00:35:58;;;;;;;331.13;111.00;;;;;;;10.97;87.60;100797.75;338861;29;1206;-80
2022/05/19 00:36:13;;;;;;;330.92;112.43;;;;;;;10.93;87.06;100796.13;337471;29;1228;-80
2022/05/19 00:36:24;;;;;;;324.70;112.57;;;;;;;10.94;87.25;100789.97;340354;29;1505;-80
2022/05/19 00:36:34;;;;;;;325.50;112.95;;;;;;;10.97;87.56;100793.38;337786;29;1270;-80
2022/05/19 00:36:44;;;;;;;329.77;114.23;;;;;;;11.00;87.40;100793.31;336634;29;1925;-80
2022/05/19 00:37:01;;;;;;;332.20;114.05;;;;;;;11.04;87.11;100806.34;338185;29;1501;-80
2022/05/19 00:37:12;;;;;;;327.20;112.25;;;;;;;11.03;87.29;100796.75;341765;29;1454;-80
2022/05/19 00:37:22;;;;;;;325.03;112.07;;;;;;;10.99;87.37;100794.22;340123;29;1226;-80
2022/05/19 00:37:33;;;;;;;326.75;113.25;;;;;;;11.02;87.33;100797.66;336776;29;1254;-80
2022/05/19 00:37:43;;;;;;;328.87;113.70;;;;;;;11.02;87.41;100792.41;337760;29;1325;-80
2022/05/19 00:37:53;;;;;;;330.10;113.18;;;;;;;11.00;87.33;100787.22;337459;29;1325;-80
2022/05/19 00:38:04;;;;;;;331.80;114.30;;;;;;;11.04;87.48;100798.50;337577;29;1280;-80
2022/05/19 00:38:14;;;;;;;328.95;114.18;;;;;;;10.98;87.45;100787.25;340334;29;743;-80
2022/05/19 00:38:25;;;;;;;332.47;115.63;;;;;;;10.97;87.63;100782.91;337583;29;1215;-80
2022/05/19 00:38:35;;;;;;;332.77;115.30;;;;;;;10.97;87.54;100788.16;336391;29;1456;-80
2022/05/19 00:38:46;;;;;;;332.67;114.50;;;;;;;10.93;87.66;100791.75;340094;29;1226;-80
2022/05/19 00:38:56;;;;;;;333.48;113.63;;;;;;;10.98;87.87;100794.25;337315;29;2700;-80
2022/05/19 00:39:10;;;;;;;334.40;114.77;;;;;;;10.96;87.69;100791.66;339080;29;2956;-80
2022/05/19 00:39:21;;;;;;;330.95;114.03;;;;;;;10.95;87.69;100784.69;337966;29;819;-80
2022/05/19 00:39:35;;;;;;;329.08;112.43;;;;;;;10.97;87.83;100792.53;336557;29;1426;-80
2022/05/19 00:39:45;;;;;;;327.05;111.80;;;;;;;10.92;87.56;100784.78;338145;29;846;-80
2022/05/19 00:39:55;;;;;;;324.73;112.43;;;;;;;10.93;87.97;100796.13;336480;29;1299;-80
2022/05/19 00:40:07;;;;;;;328.10;113.85;;;;;;;10.94;87.72;100785.59;337899;29;1296;-80
2022/05/19 00:40:18;;;;;;;332.67;114.35;;;;;;;10.96;87.73;100788.19;339051;29;1310;-80
2022/05/19 00:40:28;;;;;;;330.83;111.78;;;;;;;10.95;87.82;100789.94;338848;29;1442;-80
2022/05/19 00:40:50;;;;;;;332.77;112.75;;;;;;;10.96;87.76;100781.19;340097;29;1308;-80
2022/05/19 00:41:00;;;;;;;330.58;111.50;;;;;;;10.97;87.38;100788.16;337747;29;1455;-80
2022/05/19 00:41:11;;;;;;;324.83;110.05;;;;;;;10.99;87.61;100791.59;335131;29;1321;-80
2022/05/19 00:41:21;;;;;;;326.93;111.40;;;;;;;11.02;87.76;100785.44;340190;29;1217;-80
2022/05/19 00:41:32;;;;;;;330.20;112.13;;;;;;;11.01;87.96;100794.19;340089;29;1350;-80
2022/05/19 00:41:43;;;;;;;333.00;112.83;;;;;;;11.02;87.51;100793.28;336030;29;1449;-80
2022/05/19 00:42:43;;;;;;;332.55;112.40;;;;;;;11.00;87.97;100788.06;341956;29;885;-80
2022/05/19 00:42:52;;;;;;;325.55;112.05;;;;;;;11.03;88.13;100791.53;339162;29;782;-80
2022/05/19 00:43:03;;;;;;;323.50;110.75;;;;;;;11.00;88.09;100790.69;337451;29;1337;-80
2022/05/19 00:43:14;;;;;;;327.20;112.22;;;;;;;11.00;87.76;100798.56;342762;28;886;-80
2022/05/19 00:43:29;;;;;;;327.67;113.40;;;;;;;11.01;88.01;100791.56;340194;29;1301;-80
2022/05/19 00:43:42;;;;;;;322.45;111.40;;;;;;;11.04;88.02;100798.50;337687;29;1319;-80
2022/05/19 00:44:00;;;;;;;325.23;111.78;;;;;;;10.99;88.08;100781.13;338979;29;1014;-80
2022/05/19 00:44:10;;;;;;;327.50;112.57;;;;;;;11.03;88.27;100791.53;339065;29;894;-80
2022/05/19 00:44:21;;;;;;;324.85;111.47;;;;;;;11.00;88.14;100782.84;335369;29;1258;-80
2022/05/19 00:44:31;;;;;;;328.43;112.33;;;;;;;11.02;87.96;100785.44;339261;29;885;-80
2022/05/19 00:44:41;;;;;;;334.52;113.40;;;;;;;11.04;88.07;100793.25;342096;28;1553;-80
2022/05/19 00:44:52;;;;;;;338.73;114.97;;;;;;;11.00;88.11;100781.97;339497;29;1185;-80
2022/05/19 00:45:03;;;;;;;340.23;116.10;;;;;;;11.03;88.15;100796.75;336545;29;1301;-80
2022/05/19 00:45:15;;;;;;;339.33;116.25;;;;;;;11.00;87.80;100788.06;339158;29;791;-80
2022/05/19 00:45:28;;;;;;;336.02;113.68;;;;;;;11.02;88.13;100790.66;336763;29;1384;-80
2022/05/19 00:45:49;;;;;;;333.05;113.22;;;;;;;11.02;88.23;100790.66;336433;29;1379;-80
2022/05/19 00:46:19;;;;;;;327.95;113.50;;;;;;;11.03;88.34;100791.53;337371;29;1305;-80
2022/05/19 00:46:47;;;;;;;324.00;112.68;;;;;;;10.98;88.17;100795.13;337933;29;1530;-80
2022/05/19 00:46:58;;;;;;;322.23;109.50;;;;;;;10.96;87.95;100791.66;338903;29;1024;-80
2022/05/19 00:47:13;;;;;;;322.15;109.32;;;;;;;10.97;88.46;100793.38;339358;29;1241;-80
2022/05/19 00:47:24;;;;;;;326.73;111.68;;;;;;;10.96;88.47;100790.81;339537;29;992;-80
2022/05/19 00:47:57;;;;;;;326.03;111.80;;;;;;;10.99;88.68;100795.97;338109;29;897;-80
2022/05/19 00:48:28;;;;;;;319.67;110.63;;;;;;;10.99;88.46;100791.59;338685;29;2352;-80
2022/05/19 00:48:44;;;;;;;329.58;112.50;;;;;;;10.98;88.52;100800.34;338003;29;1550;-81
2022/05/19 00:49:11;;;;;;;333.05;113.82;;;;;;;10.99;88.62;100793.34;337392;29;930;-81
2022/05/19 00:49:31;;;;;;;321.80;107.03;;;;;;;11.01;88.61;100791.56;337653;29;850;-81
2022/05/19 00:49:42;;;;;;;323.92;108.93;;;;;;;11.00;88.15;100790.69;335914;29;1722;-81
2022/05/19 00:49:53;;;;;;;327.40;110.97;;;;;;;11.01;88.20;100794.19;336319;29;1444;-81
2022/05/19 00:50:04;;;;;;;327.98;111.35;;;;;;;11.00;88.65;100798.56;337012;29;1056;-81
2022/05/19 00:50:47;;;;;;;325.58;111.35;;;;;;;10.99;88.15;100788.97;339090;29;1197;-81
2022/05/19 00:51:02;;;;;;;322.05;108.97;;;;;;;10.97;88.16;100788.16;337345;29;1430;-81
2022/05/19 00:51:13;;;;;;;325.05;110.78;;;;;;;10.98;88.10;100802.09;337447;29;1293;-81
2022/05/19 00:51:35;;;;;;;328.83;110.73;;;;;;;10.97;88.23;100792.53;338541;29;1631;-81
2022/05/19 00:51:47;;;;;;;326.58;109.20;;;;;;;11.00;88.17;100797.69;336470;29;918;-81
2022/05/19 00:52:02;;;;;;;326.90;110.10;;;;;;;10.97;88.33;100793.38;338087;29;1115;-81
2022/05/19 00:52:26;;;;;;;327.15;110.40;;;;;;;11.00;88.19;100793.31;339403;29;1403;-81
2022/05/19 00:52:39;;;;;;;322.65;109.30;;;;;;;11.00;88.44;100802.94;340691;29;1261;-81
2022/05/19 00:52:49;;;;;;;325.58;109.78;;;;;;;10.98;87.99;100797.72;337819;29;1429;-81
2022/05/19 00:53:15;;;;;;;328.00;111.03;;;;;;;10.99;88.21;100793.34;336511;29;1199;-81
2022/05/19 00:53:30;;;;;;;323.13;110.57;;;;;;;10.96;87.88;100799.53;340306;29;1289;-81
2022/05/19 00:53:46;;;;;;;325.63;112.18;;;;;;;10.97;88.11;100789.91;337612;29;1256;-81
2022/05/19 00:53:57;;;;;;;325.98;112.57;;;;;;;10.98;88.47;100794.25;334956;29;1448;-81
2022/05/19 00:54:09;;;;;;;327.60;111.38;;;;;;;10.97;88.45;100793.38;338787;29;1300;-81